createdAt,value
2018-04-08T00:01:17.814Z,99.90
2018-04-08T00:03:44.229Z,99.90
2018-04-08T00:06:10.725Z,99.90
2018-04-08T00:08:37.649Z,99.90
2018-04-08T00:11:03.946Z,99.90
2018-04-08T00:13:30.834Z,99.90
2018-04-08T00:15:56.921Z,99.90
2018-04-08T00:18:23.059Z,99.90
2018-04-08T00:20:49.110Z,99.90
2018-04-08T00:23:15.651Z,99.90
2018-04-08T00:25:42.671Z,99.90
2018-04-08T00:28:08.816Z,99.90
2018-04-08T00:30:34.946Z,99.90
2018-04-08T00:33:01.014Z,99.90
2018-04-08T00:35:27.813Z,99.90
2018-04-08T00:37:54.009Z,99.90
2018-04-08T00:40:20.115Z,99.90
2018-04-08T00:42:46.285Z,99.90
2018-04-08T00:45:12.478Z,99.90
2018-04-08T00:47:38.590Z,99.90
2018-04-08T00:50:04.812Z,99.90
2018-04-08T00:52:31.049Z,99.90
2018-04-08T00:54:57.342Z,99.90
2018-04-08T00:57:23.496Z,99.90
2018-04-08T00:59:49.680Z,99.90
2018-04-08T01:02:15.968Z,99.90
2018-04-08T01:04:42.314Z,99.90
2018-04-08T01:07:08.395Z,99.90
2018-04-08T01:09:34.618Z,99.90
2018-04-08T01:12:00.844Z,99.90
2018-04-08T01:14:26.887Z,99.90
2018-04-08T01:16:53.000Z,99.90
2018-04-08T01:19:19.300Z,99.90
2018-04-08T01:21:45.519Z,99.90
2018-04-08T01:24:11.770Z,99.90
2018-04-08T01:26:37.866Z,99.90
2018-04-08T01:29:04.032Z,99.90
2018-04-08T01:31:30.131Z,99.90
2018-04-08T01:33:56.204Z,99.90
2018-04-08T01:36:22.310Z,99.90
2018-04-08T01:38:48.523Z,99.90
2018-04-08T01:41:14.615Z,99.90
2018-04-08T01:43:41.171Z,99.90
2018-04-08T01:46:07.702Z,99.90
2018-04-08T01:48:33.880Z,99.90
2018-04-08T01:51:00.272Z,99.90
2018-04-08T01:53:26.341Z,99.90
2018-04-08T01:55:52.462Z,99.90
2018-04-08T01:58:18.571Z,99.90
2018-04-08T02:00:45.771Z,99.90
2018-04-08T02:03:12.070Z,99.90
2018-04-08T02:05:39.051Z,99.90
2018-04-08T02:08:05.321Z,99.90
2018-04-08T02:10:31.408Z,99.90
2018-04-08T02:12:57.524Z,99.90
2018-04-08T02:15:23.567Z,99.90
2018-04-08T02:17:49.762Z,99.90
2018-04-08T02:20:16.007Z,99.90
2018-04-08T02:22:42.347Z,99.90
2018-04-08T02:25:08.472Z,99.90
2018-04-08T02:27:35.581Z,99.90
2018-04-08T02:30:07.635Z,99.90
2018-04-08T02:32:33.731Z,99.90
2018-04-08T02:34:59.910Z,99.90
2018-04-08T02:37:27.032Z,99.90
2018-04-08T02:39:53.866Z,99.90
2018-04-08T02:42:19.988Z,99.90
2018-04-08T02:44:46.360Z,99.90
2018-04-08T02:47:12.651Z,99.90
2018-04-08T02:49:38.715Z,99.90
2018-04-08T02:52:05.662Z,99.90
2018-04-08T02:54:32.028Z,99.90
2018-04-08T02:56:58.113Z,99.90
2018-04-08T02:59:24.969Z,99.90
2018-04-08T03:01:51.822Z,99.90
2018-04-08T03:04:18.673Z,99.90
2018-04-08T03:06:45.615Z,99.90
2018-04-08T03:09:12.986Z,99.90
2018-04-08T03:11:39.184Z,99.90
2018-04-08T03:14:05.295Z,99.90
2018-04-08T03:16:31.392Z,99.90
2018-04-08T03:18:57.442Z,99.90
2018-04-08T03:21:23.580Z,99.90
2018-04-08T03:23:49.802Z,99.90
2018-04-08T03:26:16.016Z,99.90
2018-04-08T03:28:42.471Z,99.90
2018-04-08T03:31:08.563Z,99.90
2018-04-08T03:33:35.433Z,99.90
2018-04-08T03:36:01.562Z,99.90
2018-04-08T03:38:27.743Z,99.90
2018-04-08T03:40:53.808Z,99.90
2018-04-08T03:43:20.009Z,99.90
2018-04-08T03:45:46.226Z,99.90
2018-04-08T03:48:12.564Z,99.90
2018-04-08T03:50:38.620Z,99.90
2018-04-08T03:53:04.748Z,99.90
2018-04-08T03:55:31.078Z,99.90
2018-04-08T03:57:57.182Z,99.90
2018-04-08T04:00:23.285Z,99.90
2018-04-08T04:02:49.415Z,99.90
2018-04-08T04:05:15.546Z,99.90
2018-04-08T04:07:41.849Z,99.90
2018-04-08T04:10:08.246Z,99.90
2018-04-08T04:12:43.000Z,99.90
2018-04-08T04:15:09.216Z,99.90
2018-04-08T04:17:35.487Z,99.90
2018-04-08T04:20:13.959Z,99.90
2018-04-08T04:22:52.981Z,99.90
2018-04-08T04:25:31.383Z,99.90
2018-04-08T04:27:57.470Z,99.90
2018-04-08T04:30:23.547Z,99.90
2018-04-08T04:32:49.668Z,99.90
2018-04-08T04:35:15.828Z,99.90
2018-04-08T04:37:41.982Z,99.90
2018-04-08T04:40:08.180Z,99.90
2018-04-08T04:42:35.019Z,99.90
2018-04-08T04:45:01.088Z,99.90
2018-04-08T04:47:27.452Z,99.90
2018-04-08T04:49:53.683Z,99.90
2018-04-08T04:52:19.861Z,99.90
2018-04-08T04:54:46.064Z,99.90
2018-04-08T04:57:12.530Z,99.90
2018-04-08T04:59:38.630Z,99.90
2018-04-08T05:02:04.707Z,99.90
2018-04-08T05:04:30.781Z,99.90
2018-04-08T05:06:56.871Z,99.90
2018-04-08T05:09:22.906Z,99.90
2018-04-08T05:11:49.235Z,99.90
2018-04-08T05:14:15.432Z,99.90
2018-04-08T05:16:41.680Z,99.90
2018-04-08T05:19:07.944Z,99.90
2018-04-08T05:21:34.179Z,99.90
2018-04-08T05:24:00.297Z,99.90
2018-04-08T05:26:26.635Z,99.90
2018-04-08T05:28:52.759Z,99.90
2018-04-08T05:31:18.910Z,99.90
2018-04-08T05:33:45.124Z,99.90
2018-04-08T05:36:11.539Z,99.90
2018-04-08T05:38:37.733Z,99.90
2018-04-08T05:41:04.000Z,99.90
2018-04-08T05:43:31.035Z,99.90
2018-04-08T05:45:57.148Z,99.90
2018-04-08T05:48:23.260Z,99.90
2018-04-08T05:50:49.613Z,99.90
2018-04-08T05:53:15.964Z,99.90
2018-04-08T05:55:42.222Z,99.90
2018-04-08T05:58:08.347Z,99.90
2018-04-08T06:00:34.621Z,99.90
2018-04-08T06:03:00.766Z,99.90
2018-04-08T06:05:26.921Z,99.90
2018-04-08T06:07:53.110Z,99.90
2018-04-08T06:10:19.276Z,99.90
2018-04-08T06:12:45.581Z,99.90
2018-04-08T06:15:12.033Z,99.90
2018-04-08T06:17:38.359Z,99.90
2018-04-08T06:20:04.419Z,99.90
2018-04-08T06:22:30.504Z,99.90
2018-04-08T06:24:56.933Z,99.90
2018-04-08T06:27:23.043Z,99.90
2018-04-08T06:29:49.192Z,99.90
2018-04-08T06:32:15.453Z,99.90
2018-04-08T06:34:41.846Z,99.90
2018-04-08T06:37:08.177Z,99.90
2018-04-08T06:39:35.625Z,99.90
2018-04-08T06:42:01.747Z,99.90
2018-04-08T06:44:27.914Z,99.90
2018-04-08T06:46:54.087Z,99.90
2018-04-08T06:49:20.296Z,99.90
2018-04-08T06:51:46.423Z,99.90
2018-04-08T06:54:12.664Z,99.90
2018-04-08T06:56:38.779Z,99.90
2018-04-08T06:59:04.910Z,99.90
2018-04-08T07:01:31.091Z,99.90
2018-04-08T07:03:58.023Z,99.90
2018-04-08T07:06:24.242Z,99.90
2018-04-08T07:08:50.424Z,99.90
2018-04-08T07:11:16.523Z,99.90
2018-04-08T07:13:42.801Z,99.90
2018-04-08T07:16:09.745Z,99.90
2018-04-08T07:18:35.927Z,99.90
2018-04-08T07:21:02.102Z,99.90
2018-04-08T07:23:28.166Z,99.90
2018-04-08T07:25:54.303Z,99.90
2018-04-08T07:28:20.379Z,99.90
2018-04-08T07:30:46.654Z,99.90
2018-04-08T07:33:12.877Z,99.90
2018-04-08T07:35:38.990Z,99.90
2018-04-08T07:38:05.832Z,99.90
2018-04-08T07:40:31.881Z,99.90
2018-04-08T07:42:57.904Z,99.90
2018-04-08T07:45:23.930Z,99.90
2018-04-08T07:47:50.051Z,99.90
2018-04-08T07:50:16.205Z,99.90
2018-04-08T07:52:42.540Z,99.90
2018-04-08T07:55:08.714Z,99.90
2018-04-08T07:57:34.949Z,99.90
2018-04-08T08:00:01.882Z,99.90
2018-04-08T08:02:28.002Z,99.90
2018-04-08T08:04:54.054Z,99.90
2018-04-08T08:07:20.411Z,99.90
2018-04-08T08:09:46.854Z,99.90
2018-04-08T08:12:13.265Z,99.90
2018-04-08T08:14:39.408Z,99.90
2018-04-08T08:17:05.530Z,99.90
2018-04-08T08:19:31.777Z,99.90
2018-04-08T08:21:58.499Z,99.90
2018-04-08T08:24:24.596Z,99.90
2018-04-08T08:26:51.070Z,99.90
2018-04-08T08:29:17.287Z,99.90
2018-04-08T08:31:44.044Z,99.90
2018-04-08T08:34:10.914Z,99.90
2018-04-08T08:36:38.197Z,99.90
2018-04-08T08:39:04.387Z,99.90
2018-04-08T08:41:30.578Z,99.90
2018-04-08T08:43:56.985Z,99.90
2018-04-08T08:46:23.408Z,99.90
2018-04-08T08:48:49.536Z,99.90
2018-04-08T08:51:16.015Z,99.90
2018-04-08T08:53:42.433Z,99.90
2018-04-08T08:56:08.652Z,99.90
2018-04-08T08:58:35.859Z,99.90
2018-04-08T09:01:01.938Z,99.90
2018-04-08T09:03:27.965Z,99.90
2018-04-08T09:05:54.479Z,99.90
2018-04-08T09:08:20.611Z,99.90
2018-04-08T09:10:46.738Z,99.90
2018-04-08T09:13:13.811Z,99.90
2018-04-08T09:15:40.077Z,99.90
2018-04-08T09:18:06.361Z,99.90
2018-04-08T09:20:37.389Z,99.90
2018-04-08T09:23:13.679Z,99.90
2018-04-08T09:25:42.092Z,99.90
2018-04-08T09:28:08.261Z,99.90
2018-04-08T09:30:34.608Z,99.90
2018-04-08T09:33:00.838Z,99.90
2018-04-08T09:35:26.936Z,99.90
2018-04-08T09:37:52.987Z,99.90
2018-04-08T09:40:19.971Z,99.90
2018-04-08T09:42:46.399Z,99.90
2018-04-08T09:45:12.699Z,99.90
2018-04-08T09:47:39.226Z,99.90
2018-04-08T09:50:05.335Z,99.90
2018-04-08T09:52:32.496Z,99.90
2018-04-08T09:54:58.605Z,99.90
2018-04-08T09:57:24.647Z,99.90
2018-04-08T09:59:50.935Z,99.90
2018-04-08T10:05:17.820Z,99.90
2018-04-08T10:07:44.085Z,99.90
2018-04-08T10:10:10.552Z,99.90
2018-04-08T10:12:37.515Z,99.90
2018-04-08T10:15:03.634Z,99.90
2018-04-08T10:17:29.700Z,99.90
2018-04-08T10:19:55.847Z,99.90
2018-04-08T10:22:21.932Z,99.90
2018-04-08T10:24:48.226Z,99.90
2018-04-08T10:27:14.414Z,99.90
2018-04-08T10:29:40.643Z,98.60
2018-04-08T10:32:06.724Z,97.70
2018-04-08T10:34:32.793Z,97.00
2018-04-08T10:36:59.082Z,96.90
2018-04-08T10:39:25.145Z,95.30
2018-04-08T10:41:51.292Z,92.80
2018-04-08T10:44:17.366Z,91.90
2018-04-08T10:46:44.259Z,90.90
2018-04-08T10:49:10.595Z,90.50
2018-04-08T10:51:36.754Z,87.70
2018-04-08T10:54:03.547Z,81.00
2018-04-08T10:56:29.626Z,81.10
2018-04-08T10:58:55.694Z,78.80
2018-04-08T11:01:21.854Z,78.00
2018-04-08T11:03:48.273Z,76.50
2018-04-08T11:06:14.504Z,70.50
2018-04-08T11:08:40.992Z,70.10
2018-04-08T11:11:07.482Z,68.40
2018-04-08T11:13:33.535Z,65.90
2018-04-08T11:15:59.677Z,64.70
2018-04-08T11:18:25.760Z,60.70
2018-04-08T11:20:52.569Z,54.60
2018-04-08T11:23:19.110Z,54.50
2018-04-08T11:25:45.236Z,52.40
2018-04-08T11:28:11.462Z,50.20
2018-04-08T11:30:37.567Z,49.10
2018-04-08T11:33:03.715Z,47.50
2018-04-08T11:35:29.794Z,47.40
2018-04-08T11:37:55.864Z,45.70
2018-04-08T11:40:21.986Z,44.10
2018-04-08T11:42:48.324Z,43.30
2018-04-08T11:45:14.493Z,42.10
2018-04-08T11:47:40.884Z,41.40
2018-04-08T11:50:07.827Z,39.90
2018-04-08T11:52:34.185Z,39.90
2018-04-08T11:55:01.005Z,38.50
2018-04-08T11:57:27.328Z,38.40
2018-04-08T11:59:53.703Z,38.20
2018-04-08T12:02:19.789Z,36.90
2018-04-08T12:04:46.025Z,37.30
2018-04-08T12:07:12.424Z,35.50
2018-04-08T12:09:39.234Z,34.10
2018-04-08T12:12:05.625Z,34.00
2018-04-08T12:14:31.743Z,33.90
2018-04-08T12:16:58.599Z,33.20
2018-04-08T12:19:24.859Z,32.80
2018-04-08T12:21:50.942Z,32.60
2018-04-08T12:24:17.094Z,31.00
2018-04-08T12:26:44.535Z,30.80
2018-04-08T12:29:11.371Z,30.60
2018-04-08T12:31:38.255Z,29.50
2018-04-08T12:34:04.823Z,29.40
2018-04-08T12:36:31.054Z,29.50
2018-04-08T12:38:57.203Z,28.80
2018-04-08T12:41:23.306Z,28.70
2018-04-08T12:43:50.239Z,27.50
2018-04-08T12:46:16.472Z,27.40
2018-04-08T12:48:42.745Z,28.70
2018-04-08T12:51:09.589Z,26.80
2018-04-08T12:53:36.431Z,26.50
2018-04-08T12:56:02.665Z,26.50
2018-04-08T12:58:29.184Z,27.30
2018-04-08T13:00:55.370Z,26.40
2018-04-08T13:03:21.450Z,26.20
2018-04-08T13:05:48.059Z,26.30
2018-04-08T13:08:14.957Z,25.90
2018-04-08T13:10:41.361Z,26.10
2018-04-08T13:13:07.466Z,25.80
2018-04-08T13:15:33.660Z,25.50
2018-04-08T13:18:00.580Z,25.30
2018-04-08T13:20:26.666Z,25.30
2018-04-08T13:22:52.790Z,25.30
2018-04-08T13:25:18.936Z,25.90
2018-04-08T13:27:45.819Z,24.20
2018-04-08T13:30:12.026Z,24.20
2018-04-08T13:32:38.873Z,23.80
2018-04-08T13:35:04.956Z,23.80
2018-04-08T13:37:31.443Z,23.30
2018-04-08T13:39:57.875Z,23.80
2018-04-08T13:42:23.955Z,23.00
2018-04-08T13:44:52.163Z,23.80
2018-04-08T13:47:18.305Z,22.50
2018-04-08T13:49:44.595Z,22.40
2018-04-08T13:52:11.082Z,22.70
2018-04-08T13:54:38.305Z,22.10
2018-04-08T13:57:04.446Z,22.00
2018-04-08T13:59:31.796Z,22.10
2018-04-08T14:01:57.987Z,22.90
2018-04-08T14:04:24.827Z,22.30
2018-04-08T14:06:51.262Z,22.30
2018-04-08T14:09:17.781Z,22.60
2018-04-08T14:11:44.100Z,21.90
2018-04-08T14:14:10.592Z,21.50
2018-04-08T14:16:36.818Z,21.40
2018-04-08T14:19:02.909Z,21.40
2018-04-08T14:21:30.113Z,21.30
2018-04-08T14:23:56.489Z,21.30
2018-04-08T14:26:22.571Z,21.20
2018-04-08T14:28:48.643Z,21.70
2018-04-08T14:31:14.786Z,21.20
2018-04-08T14:33:41.321Z,21.30
2018-04-08T14:36:07.426Z,21.20
2018-04-08T14:38:33.560Z,21.00
2018-04-08T14:41:01.673Z,21.20
2018-04-08T14:43:27.726Z,21.20
2018-04-08T14:45:53.852Z,21.30
2018-04-08T14:48:20.011Z,21.50
2018-04-08T14:50:46.173Z,21.30
2018-04-08T14:53:12.357Z,21.30
2018-04-08T14:55:38.455Z,21.70
2018-04-08T14:58:04.619Z,21.80
2018-04-08T15:00:30.868Z,22.40
2018-04-08T15:02:57.074Z,22.20
2018-04-08T15:05:23.215Z,22.90
2018-04-08T15:07:49.550Z,22.40
2018-04-08T15:10:15.720Z,23.20
2018-04-08T15:12:42.219Z,23.00
2018-04-08T15:15:08.316Z,23.00
2018-04-08T15:17:34.442Z,23.50
2018-04-08T15:20:01.250Z,23.50
2018-04-08T15:22:27.411Z,23.30
2018-04-08T15:24:53.536Z,23.10
2018-04-08T15:27:19.669Z,23.30
2018-04-08T15:29:45.813Z,23.40
2018-04-08T15:32:12.004Z,23.00
2018-04-08T15:34:38.858Z,23.30
2018-04-08T15:37:05.741Z,23.70
2018-04-08T15:39:32.578Z,23.60
2018-04-08T15:41:58.781Z,23.60
2018-04-08T15:44:24.833Z,24.10
2018-04-08T15:46:50.916Z,24.10
2018-04-08T15:49:17.160Z,24.60
2018-04-08T15:51:43.306Z,25.20
2018-04-08T15:54:09.504Z,25.90
2018-04-08T15:56:35.560Z,27.20
2018-04-08T15:59:01.662Z,28.80
2018-04-08T16:01:27.859Z,29.50
2018-04-08T16:03:54.011Z,30.10
2018-04-08T16:06:20.064Z,30.80
2018-04-08T16:08:46.168Z,31.90
2018-04-08T16:11:12.376Z,32.70
2018-04-08T16:13:39.225Z,33.80
2018-04-08T16:16:05.323Z,33.80
2018-04-08T16:18:31.545Z,34.30
2018-04-08T16:20:57.627Z,34.40
2018-04-08T16:23:23.721Z,35.50
2018-04-08T16:25:49.958Z,36.40
2018-04-08T16:28:16.200Z,36.70
2018-04-08T16:30:42.467Z,37.70
2018-04-08T16:33:08.606Z,37.70
2018-04-08T16:35:34.687Z,37.30
2018-04-08T16:38:01.545Z,37.20
2018-04-08T16:40:27.638Z,37.10
2018-04-08T16:42:53.660Z,37.10
2018-04-08T16:45:19.787Z,37.20
2018-04-08T16:47:45.911Z,37.40
2018-04-08T16:50:11.999Z,37.50
2018-04-08T16:52:38.858Z,38.40
2018-04-08T16:55:04.904Z,38.30
2018-04-08T16:57:31.058Z,38.70
2018-04-08T16:59:57.159Z,39.70
2018-04-08T17:02:23.257Z,40.00
2018-04-08T17:04:50.079Z,41.10
2018-04-08T17:07:16.427Z,41.10
2018-04-08T17:09:43.391Z,41.90
2018-04-08T17:12:09.480Z,41.90
2018-04-08T17:14:35.765Z,43.00
2018-04-08T17:17:01.885Z,43.60
2018-04-08T17:19:43.067Z,44.30
2018-04-08T17:22:09.146Z,44.70
2018-04-08T17:24:35.214Z,44.90
2018-04-08T17:27:01.415Z,45.40
2018-04-08T17:29:27.604Z,45.70
2018-04-08T17:31:54.882Z,46.40
2018-04-08T17:34:20.969Z,46.80
2018-04-08T17:36:47.026Z,47.40
2018-04-08T17:39:13.218Z,48.80
2018-04-08T17:41:39.290Z,48.70
2018-04-08T17:44:06.128Z,50.70
2018-04-08T17:46:32.233Z,50.50
2018-04-08T17:48:58.521Z,51.80
2018-04-08T17:51:25.424Z,54.40
2018-04-08T17:53:51.545Z,54.50
2018-04-08T17:56:18.593Z,59.20
2018-04-08T17:58:44.931Z,59.70
2018-04-08T18:01:11.088Z,62.70
2018-04-08T18:03:37.197Z,67.50
2018-04-08T18:06:03.304Z,73.30
2018-04-08T18:08:29.470Z,79.10
2018-04-08T18:10:55.811Z,84.10
2018-04-08T18:13:21.846Z,87.90
2018-04-08T18:15:47.946Z,90.80
2018-04-08T18:18:14.276Z,91.00
2018-04-08T18:20:40.363Z,92.90
2018-04-08T18:23:06.429Z,93.70
2018-04-08T18:25:33.265Z,94.90
2018-04-08T18:27:59.352Z,94.90
2018-04-08T18:30:25.419Z,95.00
2018-04-08T18:32:51.724Z,96.10
2018-04-08T18:35:17.776Z,96.60
2018-04-08T18:37:43.920Z,97.20
2018-04-08T18:40:09.966Z,98.00
2018-04-08T18:42:36.069Z,98.20
2018-04-08T18:45:02.499Z,98.10
2018-04-08T18:47:29.383Z,99.70
2018-04-08T18:49:55.480Z,99.70
2018-04-08T18:52:21.699Z,99.90
2018-04-08T18:54:47.918Z,99.90
2018-04-08T18:57:14.485Z,99.90
2018-04-08T18:59:40.883Z,99.90
2018-04-08T19:02:06.933Z,99.90
2018-04-08T19:04:33.220Z,99.90
2018-04-08T19:06:59.276Z,99.90
2018-04-08T19:09:25.352Z,99.90
2018-04-08T19:11:51.899Z,99.90
2018-04-08T19:14:18.046Z,99.90
2018-04-08T19:16:44.220Z,99.90
2018-04-08T19:19:11.081Z,99.90
2018-04-08T19:21:37.157Z,99.90
2018-04-08T19:24:03.662Z,99.90
2018-04-08T19:26:30.112Z,99.90
2018-04-08T19:28:56.188Z,99.90
2018-04-08T19:31:22.998Z,99.90
2018-04-08T19:33:56.364Z,99.90
2018-04-08T19:36:22.649Z,99.90
2018-04-08T19:38:49.516Z,99.90
2018-04-08T19:41:15.592Z,99.90
2018-04-08T19:43:42.078Z,99.90
2018-04-08T19:46:08.226Z,99.90
2018-04-08T19:48:34.426Z,99.90
2018-04-08T19:51:00.568Z,99.90
2018-04-08T19:53:26.914Z,99.90
2018-04-08T19:55:52.960Z,99.90
2018-04-08T19:58:19.085Z,99.90
2018-04-08T20:00:45.322Z,99.90
2018-04-08T20:03:11.421Z,99.90
2018-04-08T20:05:37.459Z,99.90
2018-04-08T20:08:03.564Z,99.90
2018-04-08T20:10:29.628Z,99.90
2018-04-08T20:12:55.696Z,99.90
2018-04-08T20:15:22.619Z,99.90
2018-04-08T20:17:48.762Z,99.90
2018-04-08T20:20:14.871Z,99.90
2018-04-08T20:22:41.287Z,99.90
2018-04-08T20:25:07.406Z,99.90
2018-04-08T20:27:33.517Z,99.90
2018-04-08T20:29:59.693Z,99.90
2018-04-08T20:32:26.488Z,99.90
2018-04-08T20:34:52.571Z,99.90
2018-04-08T20:37:18.698Z,99.90
2018-04-08T20:39:44.992Z,99.90
2018-04-08T20:42:11.104Z,99.90
2018-04-08T20:44:38.158Z,99.90
2018-04-08T20:47:04.223Z,99.90
2018-04-08T20:49:30.286Z,99.90
2018-04-08T20:51:56.527Z,99.90
2018-04-08T20:54:22.594Z,99.90
2018-04-08T20:56:48.994Z,99.90
2018-04-08T20:59:15.197Z,99.90
2018-04-08T21:01:41.269Z,99.90
2018-04-08T21:04:07.311Z,99.90
2018-04-08T21:06:33.474Z,99.90
2018-04-08T21:08:59.703Z,99.90
2018-04-08T21:11:25.771Z,99.90
2018-04-08T21:13:52.185Z,99.90
2018-04-08T21:16:18.348Z,99.90
2018-04-08T21:18:44.558Z,99.90
2018-04-08T21:21:10.683Z,99.90
2018-04-08T21:23:36.747Z,99.90
2018-04-08T21:26:02.839Z,99.90
2018-04-08T21:28:29.375Z,99.90
2018-04-08T21:30:55.488Z,99.90
2018-04-08T21:33:21.560Z,99.90
2018-04-08T21:35:48.977Z,99.90
2018-04-08T21:38:15.315Z,99.90
2018-04-08T21:40:41.699Z,99.90
2018-04-08T21:43:07.807Z,99.90
2018-04-08T21:45:33.988Z,99.90
2018-04-08T21:48:00.147Z,99.90
2018-04-08T21:50:26.961Z,99.90
2018-04-08T21:52:53.069Z,99.90
2018-04-08T21:55:19.224Z,99.90
2018-04-08T21:57:45.335Z,99.90
2018-04-08T22:00:11.368Z,99.90
2018-04-08T22:02:37.424Z,99.90
2018-04-08T22:05:03.594Z,99.90
2018-04-08T22:07:29.688Z,99.90
2018-04-08T22:09:55.772Z,99.90
2018-04-08T22:12:21.983Z,99.90
2018-04-08T22:14:48.101Z,99.90
2018-04-08T22:17:14.261Z,99.90
2018-04-08T22:19:40.356Z,99.90
2018-04-08T22:22:07.205Z,99.90
2018-04-08T22:24:34.056Z,99.90
2018-04-08T22:27:00.154Z,99.90
2018-04-08T22:29:26.249Z,99.90
2018-04-08T22:31:52.309Z,99.90
2018-04-08T22:34:18.347Z,99.90
2018-04-08T22:36:44.824Z,99.90
2018-04-08T22:39:11.138Z,99.90
2018-04-08T22:41:37.199Z,99.90
2018-04-08T22:44:03.258Z,99.90
2018-04-08T22:46:29.535Z,99.90
2018-04-08T22:48:55.586Z,99.90
2018-04-08T22:51:21.639Z,99.90
2018-04-08T22:53:47.741Z,99.90
2018-04-08T22:56:14.669Z,99.90
2018-04-08T22:58:41.575Z,99.90
2018-04-08T23:01:07.869Z,99.90
2018-04-08T23:03:33.952Z,99.90
2018-04-08T23:05:59.987Z,99.90
2018-04-08T23:08:26.086Z,99.90
2018-04-08T23:10:52.277Z,99.90
2018-04-08T23:13:18.386Z,99.90
2018-04-08T23:15:45.308Z,99.90
2018-04-08T23:18:11.471Z,99.90
2018-04-08T23:20:37.559Z,99.90
2018-04-08T23:23:04.518Z,99.90
2018-04-08T23:25:30.562Z,99.90
2018-04-08T23:27:56.654Z,99.90
2018-04-08T23:30:23.452Z,99.90
2018-04-08T23:32:49.567Z,99.90
2018-04-08T23:35:15.699Z,99.90
2018-04-08T23:37:42.644Z,99.90
2018-04-08T23:40:08.778Z,99.90
2018-04-08T23:42:34.896Z,99.90
2018-04-08T23:45:01.014Z,99.90
2018-04-08T23:47:27.403Z,99.90
2018-04-08T23:49:53.479Z,99.90
2018-04-08T23:52:19.601Z,99.90
2018-04-08T23:54:45.851Z,99.90
2018-04-08T23:57:11.970Z,99.90
2018-04-08T23:59:38.021Z,99.90
